createdAt,value
2023-05-17T00:04:48.708Z,9.47
2023-05-17T00:09:50.260Z,9.55
2023-05-17T00:14:53.452Z,9.61
2023-05-17T00:19:55.086Z,9.75
2023-05-17T00:24:56.822Z,9.87
2023-05-17T00:29:58.490Z,9.88
2023-05-17T00:35:00.274Z,9.89
2023-05-17T00:40:02.292Z,9.87
2023-05-17T00:45:04.300Z,9.93
2023-05-17T00:50:06.637Z,10.00
2023-05-17T00:55:08.647Z,9.96
2023-05-17T01:00:10.824Z,10.02
2023-05-17T01:05:12.388Z,10.07
2023-05-17T01:10:14.006Z,10.12
2023-05-17T01:15:38.743Z,10.11
2023-05-17T01:20:43.983Z,9.98
2023-05-17T01:26:10.778Z,9.82
2023-05-17T01:31:13.069Z,9.70
2023-05-17T01:36:14.614Z,9.55
2023-05-17T01:41:32.612Z,9.51
2023-05-17T01:46:39.360Z,9.43
2023-05-17T01:51:48.723Z,9.39
2023-05-17T01:56:57.489Z,9.32
2023-05-17T02:02:06.196Z,9.25
2023-05-17T02:07:07.783Z,9.17
2023-05-17T02:12:09.349Z,9.13
2023-05-17T02:17:10.934Z,9.17
2023-05-17T02:22:12.441Z,9.20
2023-05-17T02:27:14.189Z,9.18
2023-05-17T02:32:15.752Z,9.19
2023-05-17T02:37:17.265Z,9.10
2023-05-17T02:42:18.890Z,8.99
2023-05-17T02:47:23.698Z,8.93
2023-05-17T02:52:25.313Z,8.84
2023-05-17T02:57:26.904Z,8.75
2023-05-17T03:02:28.583Z,8.60
2023-05-17T03:07:30.263Z,8.41
2023-05-17T03:12:31.887Z,8.37
2023-05-17T03:17:33.551Z,8.29
2023-05-17T03:22:35.153Z,8.28
2023-05-17T03:27:36.915Z,8.26
2023-05-17T03:32:40.586Z,8.23
2023-05-17T03:37:42.471Z,8.16
2023-05-17T03:42:44.029Z,8.13
2023-05-17T03:47:45.567Z,8.04
2023-05-17T03:52:47.234Z,7.98
2023-05-17T03:57:48.803Z,7.99
2023-05-17T04:02:52.182Z,8.08
2023-05-17T04:07:54.476Z,8.08
2023-05-17T04:12:56.034Z,8.00
2023-05-17T04:17:57.752Z,8.06
2023-05-17T04:22:59.412Z,8.09
2023-05-17T04:28:01.032Z,8.14
2023-05-17T04:33:02.762Z,8.04
2023-05-17T04:38:04.486Z,8.04
2023-05-17T04:43:06.278Z,8.14
2023-05-17T04:48:08.440Z,8.32
2023-05-17T04:53:10.109Z,8.50
2023-05-17T04:58:11.923Z,8.71
2023-05-17T05:03:13.548Z,8.92
2023-05-17T05:08:15.202Z,9.11
2023-05-17T05:13:16.995Z,9.35
2023-05-17T05:18:18.604Z,9.53
2023-05-17T05:23:20.283Z,9.65
2023-05-17T05:28:21.900Z,9.82
2023-05-17T05:33:23.578Z,9.96
2023-05-17T05:38:25.202Z,10.04
2023-05-17T05:43:26.809Z,10.27
2023-05-17T05:48:28.412Z,10.65
2023-05-17T05:53:30.071Z,10.92
2023-05-17T05:58:31.961Z,10.92
2023-05-17T06:03:33.573Z,11.04
2023-05-17T06:08:35.144Z,11.26
2023-05-17T06:13:36.754Z,11.44
2023-05-17T06:18:38.483Z,11.49
2023-05-17T06:23:40.098Z,11.55
2023-05-17T06:28:44.045Z,11.69
2023-05-17T06:33:45.949Z,11.94
2023-05-17T06:38:47.548Z,12.06
2023-05-17T06:43:49.139Z,12.25
2023-05-17T06:48:51.475Z,12.24
2023-05-17T06:53:53.244Z,12.28
2023-05-17T06:58:54.821Z,12.19
2023-05-17T07:03:56.810Z,12.05
2023-05-17T07:08:58.407Z,12.10
2023-05-17T07:13:59.946Z,12.00
2023-05-17T07:19:01.570Z,11.92
2023-05-17T07:24:03.316Z,11.90
2023-05-17T07:29:05.019Z,12.11
2023-05-17T07:34:06.671Z,12.19
2023-05-17T07:39:09.201Z,12.30
2023-05-17T07:44:10.984Z,12.44
2023-05-17T07:49:12.660Z,12.43
2023-05-17T07:54:24.585Z,12.47
2023-05-17T07:59:26.340Z,12.45
2023-05-17T08:04:27.976Z,12.47
2023-05-17T08:09:30.474Z,12.50
2023-05-17T08:14:32.037Z,12.66
2023-05-17T08:19:33.918Z,13.02
2023-05-17T08:24:35.977Z,12.98
2023-05-17T08:29:40.320Z,12.90
2023-05-17T08:34:41.861Z,12.82
2023-05-17T08:39:43.394Z,12.47
2023-05-17T08:44:45.377Z,12.52
2023-05-17T08:49:48.260Z,12.95
2023-05-17T08:54:49.967Z,13.28
2023-05-17T08:59:53.436Z,13.23
2023-05-17T09:04:56.533Z,13.00
2023-05-17T09:09:58.505Z,13.08
2023-05-17T09:15:19.316Z,13.29
2023-05-17T09:20:24.991Z,13.53
2023-05-17T09:25:28.616Z,13.66
2023-05-17T09:30:33.156Z,13.80
2023-05-17T09:35:36.628Z,13.85
2023-05-17T09:40:39.991Z,13.47
2023-05-17T09:45:41.794Z,13.71
2023-05-17T09:50:48.580Z,14.00
2023-05-17T09:55:52.754Z,14.00
2023-05-17T10:01:05.406Z,14.40
2023-05-17T10:06:09.884Z,15.75
2023-05-17T10:11:13.289Z,17.13
2023-05-17T10:16:15.900Z,17.87
2023-05-17T10:21:18.622Z,15.86
2023-05-17T10:26:20.841Z,15.24
2023-05-17T10:31:24.017Z,15.63
2023-05-17T10:36:26.254Z,14.97
2023-05-17T10:41:32.241Z,15.97
2023-05-17T10:46:34.358Z,18.56
2023-05-17T10:51:37.866Z,17.32
2023-05-17T10:56:47.492Z,15.76
2023-05-17T11:01:54.897Z,14.98
2023-05-17T11:07:19.260Z,14.70
2023-05-17T11:12:40.372Z,14.47
2023-05-17T11:17:54.473Z,14.12
2023-05-17T11:23:00.114Z,14.08
2023-05-17T11:28:17.154Z,14.03
2023-05-17T11:33:33.067Z,13.78
2023-05-17T11:38:36.610Z,13.81
2023-05-17T11:43:38.706Z,13.53
2023-05-17T11:48:40.345Z,13.44
2023-05-17T11:53:44.335Z,13.33
2023-05-17T11:58:50.501Z,13.37
2023-05-17T12:04:01.188Z,13.16
2023-05-17T12:09:03.496Z,13.09
2023-05-17T12:14:05.514Z,13.35
2023-05-17T12:19:18.282Z,13.36
2023-05-17T12:24:19.959Z,13.22
2023-05-17T12:29:23.283Z,13.16
2023-05-17T12:34:24.863Z,13.00
2023-05-17T12:39:26.677Z,12.81
2023-05-17T12:44:28.239Z,12.82
2023-05-17T12:49:29.784Z,12.95
2023-05-17T12:54:31.448Z,13.23
2023-05-17T12:59:36.462Z,13.35
2023-05-17T13:04:38.811Z,13.24
2023-05-17T13:09:50.644Z,13.11
2023-05-17T13:14:53.597Z,13.24
2023-05-17T13:19:58.052Z,13.19
2023-05-17T13:24:59.962Z,13.27
2023-05-17T13:30:01.581Z,13.19
2023-05-17T13:35:03.368Z,13.00
2023-05-17T13:40:05.436Z,13.08
2023-05-17T13:45:09.270Z,13.19
2023-05-17T13:50:12.055Z,13.22
2023-05-17T13:55:13.677Z,13.27
2023-05-17T14:00:16.228Z,13.23
2023-05-17T14:05:18.080Z,12.90
2023-05-17T14:10:19.629Z,12.96
2023-05-17T14:15:21.979Z,12.85
2023-05-17T14:20:23.564Z,13.17
2023-05-17T14:25:25.412Z,13.01
2023-05-17T14:30:27.007Z,12.85
2023-05-17T14:35:30.303Z,12.84
2023-05-17T14:40:32.765Z,12.74
2023-05-17T14:45:34.542Z,12.68
2023-05-17T14:50:36.163Z,12.71
2023-05-17T14:55:37.973Z,12.56
2023-05-17T15:00:41.744Z,12.22
2023-05-17T15:05:43.505Z,12.22
2023-05-17T15:10:45.127Z,12.37
2023-05-17T15:15:46.910Z,12.30
2023-05-17T15:20:48.509Z,12.22
2023-05-17T15:25:50.142Z,12.19
2023-05-17T15:31:03.134Z,12.04
2023-05-17T15:36:07.159Z,11.99
2023-05-17T15:41:14.457Z,11.91
2023-05-17T15:46:16.867Z,11.86
2023-05-17T15:51:18.407Z,11.74
2023-05-17T15:56:21.368Z,11.65
2023-05-17T16:01:22.930Z,11.65
2023-05-17T16:06:24.540Z,11.64
2023-05-17T16:11:26.088Z,11.78
2023-05-17T16:16:27.704Z,11.59
2023-05-17T16:21:31.275Z,11.46
2023-05-17T16:26:35.956Z,11.45
2023-05-17T16:31:37.534Z,11.55
2023-05-17T16:36:39.123Z,11.74
2023-05-17T16:41:40.730Z,11.66
2023-05-17T16:46:42.341Z,11.44
2023-05-17T16:51:45.351Z,11.40
2023-05-17T16:56:46.931Z,11.30
2023-05-17T17:01:48.650Z,11.25
2023-05-17T17:06:51.437Z,11.29
2023-05-17T17:11:53.106Z,11.23
2023-05-17T17:16:55.229Z,11.11
2023-05-17T17:21:56.852Z,10.97
2023-05-17T17:26:58.475Z,10.90
2023-05-17T17:32:00.080Z,10.81
2023-05-17T17:37:01.747Z,10.85
2023-05-17T17:42:03.372Z,10.88
2023-05-17T17:47:05.009Z,10.83
2023-05-17T17:52:06.626Z,10.72
2023-05-17T17:57:08.249Z,10.72
2023-05-17T18:02:09.994Z,10.54
2023-05-17T18:07:14.084Z,10.52
2023-05-17T18:12:15.882Z,10.51
2023-05-17T18:17:17.380Z,10.46
2023-05-17T18:22:19.084Z,10.47
2023-05-17T18:27:20.648Z,10.37
2023-05-17T18:32:22.238Z,10.35
2023-05-17T18:37:23.804Z,10.33
2023-05-17T18:42:25.543Z,10.26
2023-05-17T18:47:27.962Z,10.18
2023-05-17T18:52:29.764Z,10.14
2023-05-17T18:57:31.486Z,10.11
2023-05-17T19:02:33.104Z,10.04
2023-05-17T19:07:34.739Z,9.95
2023-05-17T19:12:39.413Z,9.82
2023-05-17T19:17:41.076Z,9.71
2023-05-17T19:22:42.694Z,9.61
2023-05-17T19:27:44.447Z,9.57
2023-05-17T19:32:46.068Z,9.55
2023-05-17T19:37:47.852Z,9.45
2023-05-17T19:42:49.933Z,9.44
2023-05-17T19:47:53.489Z,9.42
2023-05-17T19:52:55.848Z,9.35
2023-05-17T19:57:57.778Z,9.33
2023-05-17T20:02:59.822Z,9.32
2023-05-17T20:08:02.714Z,9.31
2023-05-17T20:13:04.365Z,9.29
2023-05-17T20:18:06.134Z,9.29
2023-05-17T20:23:08.691Z,9.24
2023-05-17T20:28:10.297Z,9.26
2023-05-17T20:33:11.958Z,9.20
2023-05-17T20:38:13.636Z,9.06
2023-05-17T20:43:16.782Z,8.98
2023-05-17T20:48:19.676Z,8.98
2023-05-17T20:53:21.394Z,8.94
2023-05-17T20:58:23.104Z,8.84
2023-05-17T21:03:27.907Z,8.89
2023-05-17T21:08:29.859Z,8.79
2023-05-17T21:13:31.418Z,8.78
2023-05-17T21:18:33.201Z,8.66
2023-05-17T21:23:34.767Z,8.59
2023-05-17T21:28:36.303Z,8.59
2023-05-17T21:33:37.882Z,8.50
2023-05-17T21:38:39.418Z,8.46
2023-05-17T21:43:41.846Z,8.46
2023-05-17T21:48:43.497Z,8.52
2023-05-17T21:53:45.253Z,8.56
2023-05-17T21:58:46.842Z,8.58
2023-05-17T22:03:50.749Z,8.61
2023-05-17T22:08:52.569Z,8.58
2023-05-17T22:13:54.226Z,8.54
2023-05-17T22:18:55.798Z,8.50
2023-05-17T22:23:57.766Z,8.39
2023-05-17T22:28:59.407Z,8.34
2023-05-17T22:34:00.938Z,8.28
2023-05-17T22:39:02.550Z,8.29
2023-05-17T22:44:04.332Z,8.19
2023-05-17T22:49:06.248Z,8.05
2023-05-17T22:54:07.829Z,7.95
2023-05-17T22:59:09.402Z,7.97
2023-05-17T23:04:10.967Z,7.94
2023-05-17T23:09:13.241Z,8.02
2023-05-17T23:14:14.965Z,8.04
2023-05-17T23:19:20.835Z,8.14
2023-05-17T23:24:26.023Z,8.20
2023-05-17T23:29:27.605Z,8.31
2023-05-17T23:34:29.186Z,8.33
2023-05-17T23:39:30.930Z,8.36
2023-05-17T23:44:34.836Z,8.34
2023-05-17T23:49:37.204Z,8.30
2023-05-17T23:54:42.065Z,8.31
2023-05-17T23:59:43.613Z,8.26
